sensor_id;sensor_type;location;lat;lon;timestamp;P1;durP1;ratioP1;P2;durP2;ratioP2
9465;SDS011;4771;48.726;9.006;2023-12-20T00:00:20;3.20;;;1.50;;
9465;SDS011;4771;48.726;9.006;2023-12-20T00:02:47;2.33;;;1.40;;
9465;SDS011;4771;48.726;9.006;2023-12-20T00:05:14;1.70;;;1.50;;
9465;SDS011;4771;48.726;9.006;2023-12-20T00:07:41;1.50;;;1.40;;
9465;SDS011;4771;48.726;9.006;2023-12-20T00:10:08;1.47;;;1.37;;
9465;SDS011;4771;48.726;9.006;2023-12-20T00:12:35;2.23;;;1.30;;
9465;SDS011;4771;48.726;9.006;2023-12-20T00:15:04;1.30;;;1.17;;
9465;SDS011;4771;48.726;9.006;2023-12-20T00:17:31;1.90;;;1.30;;
9465;SDS011;4771;48.726;9.006;2023-12-20T00:20:01;1.40;;;1.30;;
9465;SDS011;4771;48.726;9.006;2023-12-20T00:22:28;1.77;;;1.40;;
9465;SDS011;4771;48.726;9.006;2023-12-20T00:24:55;1.63;;;1.27;;
9465;SDS011;4771;48.726;9.006;2023-12-20T00:27:22;1.30;;;1.20;;
9465;SDS011;4771;48.726;9.006;2023-12-20T00:29:49;1.70;;;1.33;;
9465;SDS011;4771;48.726;9.006;2023-12-20T00:32:17;1.50;;;1.30;;
9465;SDS011;4771;48.726;9.006;2023-12-20T00:34:44;1.23;;;1.13;;
9465;SDS011;4771;48.726;9.006;2023-12-20T00:37:11;1.43;;;1.30;;
9465;SDS011;4771;48.726;9.006;2023-12-20T00:39:38;1.77;;;1.20;;
9465;SDS011;4771;48.726;9.006;2023-12-20T00:42:05;1.33;;;1.23;;
9465;SDS011;4771;48.726;9.006;2023-12-20T00:44:32;1.40;;;1.30;;
9465;SDS011;4771;48.726;9.006;2023-12-20T00:46:59;2.20;;;1.30;;
9465;SDS011;4771;48.726;9.006;2023-12-20T00:49:27;1.10;;;1.00;;
9465;SDS011;4771;48.726;9.006;2023-12-20T00:51:54;1.37;;;1.27;;
9465;SDS011;4771;48.726;9.006;2023-12-20T00:54:21;1.53;;;1.10;;
9465;SDS011;4771;48.726;9.006;2023-12-20T00:56:48;1.07;;;1.03;;
9465;SDS011;4771;48.726;9.006;2023-12-20T00:59:16;2.40;;;1.33;;
9465;SDS011;4771;48.726;9.006;2023-12-20T01:01:42;1.40;;;1.30;;
9465;SDS011;4771;48.726;9.006;2023-12-20T01:04:09;1.30;;;1.20;;
9465;SDS011;4771;48.726;9.006;2023-12-20T01:06:37;1.20;;;1.10;;
9465;SDS011;4771;48.726;9.006;2023-12-20T01:09:04;1.30;;;1.20;;
9465;SDS011;4771;48.726;9.006;2023-12-20T01:11:31;1.97;;;1.20;;
9465;SDS011;4771;48.726;9.006;2023-12-20T01:13:58;1.30;;;1.20;;
9465;SDS011;4771;48.726;9.006;2023-12-20T01:16:25;1.30;;;1.20;;
9465;SDS011;4771;48.726;9.006;2023-12-20T01:18:52;1.67;;;1.27;;
9465;SDS011;4771;48.726;9.006;2023-12-20T01:21:19;1.77;;;1.30;;
9465;SDS011;4771;48.726;9.006;2023-12-20T01:23:47;1.20;;;1.10;;
9465;SDS011;4771;48.726;9.006;2023-12-20T01:26:14;1.47;;;1.30;;
9465;SDS011;4771;48.726;9.006;2023-12-20T01:28:41;1.53;;;1.30;;
9465;SDS011;4771;48.726;9.006;2023-12-20T01:31:08;3.67;;;1.20;;
9465;SDS011;4771;48.726;9.006;2023-12-20T01:33:35;1.60;;;1.33;;
9465;SDS011;4771;48.726;9.006;2023-12-20T01:36:02;1.30;;;1.20;;
9465;SDS011;4771;48.726;9.006;2023-12-20T01:38:29;1.47;;;1.13;;
9465;SDS011;4771;48.726;9.006;2023-12-20T01:40:58;1.50;;;1.10;;
9465;SDS011;4771;48.726;9.006;2023-12-20T01:43:25;1.73;;;1.27;;
9465;SDS011;4771;48.726;9.006;2023-12-20T01:45:52;1.43;;;1.13;;
9465;SDS011;4771;48.726;9.006;2023-12-20T01:48:20;1.83;;;1.30;;
9465;SDS011;4771;48.726;9.006;2023-12-20T01:50:48;2.03;;;1.20;;
9465;SDS011;4771;48.726;9.006;2023-12-20T01:53:15;1.27;;;1.17;;
9465;SDS011;4771;48.726;9.006;2023-12-20T01:55:43;1.20;;;1.10;;
9465;SDS011;4771;48.726;9.006;2023-12-20T01:58:11;1.30;;;1.20;;
9465;SDS011;4771;48.726;9.006;2023-12-20T02:00:39;1.20;;;1.10;;
9465;SDS011;4771;48.726;9.006;2023-12-20T02:03:06;2.67;;;1.30;;
9465;SDS011;4771;48.726;9.006;2023-12-20T02:05:34;2.50;;;1.10;;
9465;SDS011;4771;48.726;9.006;2023-12-20T02:08:02;1.20;;;1.10;;
9465;SDS011;4771;48.726;9.006;2023-12-20T02:10:29;1.53;;;1.20;;
9465;SDS011;4771;48.726;9.006;2023-12-20T02:12:56;1.83;;;1.30;;
9465;SDS011;4771;48.726;9.006;2023-12-20T02:15:25;2.17;;;1.00;;
9465;SDS011;4771;48.726;9.006;2023-12-20T02:17:52;0.80;;;0.80;;
9465;SDS011;4771;48.726;9.006;2023-12-20T02:20:19;0.80;;;0.80;;
9465;SDS011;4771;48.726;9.006;2023-12-20T02:22:47;1.00;;;1.00;;
9465;SDS011;4771;48.726;9.006;2023-12-20T02:25:14;0.90;;;0.90;;
9465;SDS011;4771;48.726;9.006;2023-12-20T02:27:41;0.87;;;0.87;;
9465;SDS011;4771;48.726;9.006;2023-12-20T02:30:09;0.83;;;0.70;;
9465;SDS011;4771;48.726;9.006;2023-12-20T02:32:36;0.80;;;0.80;;
9465;SDS011;4771;48.726;9.006;2023-12-20T02:35:03;0.53;;;0.50;;
9465;SDS011;4771;48.726;9.006;2023-12-20T02:37:31;0.70;;;0.70;;
9465;SDS011;4771;48.726;9.006;2023-12-20T02:40:00;0.97;;;0.87;;
9465;SDS011;4771;48.726;9.006;2023-12-20T02:42:28;0.73;;;0.70;;
9465;SDS011;4771;48.726;9.006;2023-12-20T02:44:54;0.80;;;0.80;;
9465;SDS011;4771;48.726;9.006;2023-12-20T02:47:21;0.63;;;0.63;;
9465;SDS011;4771;48.726;9.006;2023-12-20T02:49:48;0.67;;;0.67;;
9465;SDS011;4771;48.726;9.006;2023-12-20T02:52:15;0.60;;;0.60;;
9465;SDS011;4771;48.726;9.006;2023-12-20T02:54:42;0.50;;;0.50;;
9465;SDS011;4771;48.726;9.006;2023-12-20T02:57:10;1.40;;;0.70;;
9465;SDS011;4771;48.726;9.006;2023-12-20T02:59:37;0.53;;;0.53;;
9465;SDS011;4771;48.726;9.006;2023-12-20T03:02:04;0.60;;;0.60;;
9465;SDS011;4771;48.726;9.006;2023-12-20T03:04:31;0.70;;;0.70;;
9465;SDS011;4771;48.726;9.006;2023-12-20T03:06:58;1.73;;;0.80;;
9465;SDS011;4771;48.726;9.006;2023-12-20T03:09:24;0.73;;;0.73;;
9465;SDS011;4771;48.726;9.006;2023-12-20T03:11:51;0.80;;;0.80;;
9465;SDS011;4771;48.726;9.006;2023-12-20T03:14:19;0.63;;;0.60;;
9465;SDS011;4771;48.726;9.006;2023-12-20T03:16:46;0.70;;;0.70;;
9465;SDS011;4771;48.726;9.006;2023-12-20T03:19:15;0.80;;;0.80;;
9465;SDS011;4771;48.726;9.006;2023-12-20T03:21:42;0.70;;;0.70;;
9465;SDS011;4771;48.726;9.006;2023-12-20T03:24:09;0.70;;;0.70;;
9465;SDS011;4771;48.726;9.006;2023-12-20T03:26:36;0.60;;;0.60;;
9465;SDS011;4771;48.726;9.006;2023-12-20T03:29:02;0.90;;;0.90;;
9465;SDS011;4771;48.726;9.006;2023-12-20T03:31:31;1.07;;;0.70;;
9465;SDS011;4771;48.726;9.006;2023-12-20T03:33:57;2.40;;;0.70;;
9465;SDS011;4771;48.726;9.006;2023-12-20T03:36:24;0.57;;;0.57;;
9465;SDS011;4771;48.726;9.006;2023-12-20T03:38:51;0.60;;;0.60;;
9465;SDS011;4771;48.726;9.006;2023-12-20T03:41:18;0.60;;;0.60;;
9465;SDS011;4771;48.726;9.006;2023-12-20T03:43:45;0.60;;;0.60;;
9465;SDS011;4771;48.726;9.006;2023-12-20T03:46:12;0.70;;;0.70;;
9465;SDS011;4771;48.726;9.006;2023-12-20T03:48:40;0.53;;;0.53;;
9465;SDS011;4771;48.726;9.006;2023-12-20T03:51:07;0.57;;;0.57;;
9465;SDS011;4771;48.726;9.006;2023-12-20T03:53:34;0.60;;;0.60;;
9465;SDS011;4771;48.726;9.006;2023-12-20T03:56:00;0.70;;;0.70;;
9465;SDS011;4771;48.726;9.006;2023-12-20T03:58:29;1.17;;;0.70;;
9465;SDS011;4771;48.726;9.006;2023-12-20T04:00:56;0.60;;;0.60;;
9465;SDS011;4771;48.726;9.006;2023-12-20T04:03:23;0.53;;;0.53;;
9465;SDS011;4771;48.726;9.006;2023-12-20T04:05:51;1.50;;;0.63;;
9465;SDS011;4771;48.726;9.006;2023-12-20T04:08:18;0.60;;;0.60;;
9465;SDS011;4771;48.726;9.006;2023-12-20T04:10:46;0.70;;;0.70;;
9465;SDS011;4771;48.726;9.006;2023-12-20T04:13:13;0.70;;;0.70;;
9465;SDS011;4771;48.726;9.006;2023-12-20T04:15:40;0.53;;;0.53;;
9465;SDS011;4771;48.726;9.006;2023-12-20T04:18:06;0.50;;;0.50;;
9465;SDS011;4771;48.726;9.006;2023-12-20T04:20:33;0.70;;;0.70;;
9465;SDS011;4771;48.726;9.006;2023-12-20T04:23:02;0.73;;;0.73;;
9465;SDS011;4771;48.726;9.006;2023-12-20T04:25:28;0.70;;;0.70;;
9465;SDS011;4771;48.726;9.006;2023-12-20T04:27:55;0.60;;;0.60;;
9465;SDS011;4771;48.726;9.006;2023-12-20T04:30:22;0.50;;;0.50;;
9465;SDS011;4771;48.726;9.006;2023-12-20T04:32:49;0.60;;;0.60;;
9465;SDS011;4771;48.726;9.006;2023-12-20T04:35:16;1.03;;;0.73;;
9465;SDS011;4771;48.726;9.006;2023-12-20T04:37:43;0.67;;;0.67;;
9465;SDS011;4771;48.726;9.006;2023-12-20T04:40:11;0.70;;;0.70;;
9465;SDS011;4771;48.726;9.006;2023-12-20T04:42:38;0.80;;;0.70;;
9465;SDS011;4771;48.726;9.006;2023-12-20T04:45:05;0.70;;;0.70;;
9465;SDS011;4771;48.726;9.006;2023-12-20T04:47:32;0.73;;;0.70;;
9465;SDS011;4771;48.726;9.006;2023-12-20T04:49:59;0.67;;;0.67;;
9465;SDS011;4771;48.726;9.006;2023-12-20T04:52:27;0.60;;;0.60;;
9465;SDS011;4771;48.726;9.006;2023-12-20T04:54:54;0.60;;;0.60;;
9465;SDS011;4771;48.726;9.006;2023-12-20T04:57:22;0.60;;;0.60;;
9465;SDS011;4771;48.726;9.006;2023-12-20T04:59:49;0.60;;;0.60;;
9465;SDS011;4771;48.726;9.006;2023-12-20T05:02:16;0.63;;;0.63;;
9465;SDS011;4771;48.726;9.006;2023-12-20T05:04:42;0.70;;;0.70;;
9465;SDS011;4771;48.726;9.006;2023-12-20T05:07:09;0.70;;;0.70;;
9465;SDS011;4771;48.726;9.006;2023-12-20T05:09:36;0.70;;;0.70;;
9465;SDS011;4771;48.726;9.006;2023-12-20T05:12:03;0.70;;;0.70;;
9465;SDS011;4771;48.726;9.006;2023-12-20T05:14:32;0.60;;;0.60;;
9465;SDS011;4771;48.726;9.006;2023-12-20T05:16:58;0.60;;;0.60;;
9465;SDS011;4771;48.726;9.006;2023-12-20T05:19:25;1.30;;;0.77;;
9465;SDS011;4771;48.726;9.006;2023-12-20T05:21:52;0.67;;;0.67;;
9465;SDS011;4771;48.726;9.006;2023-12-20T05:24:19;0.80;;;0.80;;
9465;SDS011;4771;48.726;9.006;2023-12-20T05:26:46;0.60;;;0.60;;
9465;SDS011;4771;48.726;9.006;2023-12-20T05:29:13;0.70;;;0.70;;
9465;SDS011;4771;48.726;9.006;2023-12-20T05:31:41;0.60;;;0.60;;
9465;SDS011;4771;48.726;9.006;2023-12-20T05:34:08;0.77;;;0.77;;
9465;SDS011;4771;48.726;9.006;2023-12-20T05:36:35;0.70;;;0.70;;
9465;SDS011;4771;48.726;9.006;2023-12-20T05:39:02;0.80;;;0.80;;
9465;SDS011;4771;48.726;9.006;2023-12-20T05:41:30;0.70;;;0.70;;
9465;SDS011;4771;48.726;9.006;2023-12-20T05:43:57;1.03;;;0.90;;
9465;SDS011;4771;48.726;9.006;2023-12-20T05:46:24;0.70;;;0.70;;
9465;SDS011;4771;48.726;9.006;2023-12-20T05:48:52;0.63;;;0.60;;
9465;SDS011;4771;48.726;9.006;2023-12-20T05:51:19;0.67;;;0.67;;
9465;SDS011;4771;48.726;9.006;2023-12-20T05:53:46;1.60;;;1.40;;
9465;SDS011;4771;48.726;9.006;2023-12-20T05:56:14;3.97;;;2.90;;
9465;SDS011;4771;48.726;9.006;2023-12-20T05:58:41;2.47;;;2.13;;
9465;SDS011;4771;48.726;9.006;2023-12-20T06:01:08;0.83;;;0.83;;
9465;SDS011;4771;48.726;9.006;2023-12-20T06:03:35;1.73;;;1.10;;
9465;SDS011;4771;48.726;9.006;2023-12-20T06:06:06;0.90;;;0.90;;
9465;SDS011;4771;48.726;9.006;2023-12-20T06:08:33;0.97;;;0.90;;
9465;SDS011;4771;48.726;9.006;2023-12-20T06:11:00;0.80;;;0.80;;
9465;SDS011;4771;48.726;9.006;2023-12-20T06:13:26;0.80;;;0.80;;
9465;SDS011;4771;48.726;9.006;2023-12-20T06:15:54;0.60;;;0.60;;
9465;SDS011;4771;48.726;9.006;2023-12-20T06:18:21;0.80;;;0.80;;
9465;SDS011;4771;48.726;9.006;2023-12-20T06:20:47;0.87;;;0.80;;
9465;SDS011;4771;48.726;9.006;2023-12-20T06:23:16;0.90;;;0.80;;
9465;SDS011;4771;48.726;9.006;2023-12-20T06:25:43;1.70;;;0.97;;
9465;SDS011;4771;48.726;9.006;2023-12-20T06:28:10;1.47;;;0.93;;
9465;SDS011;4771;48.726;9.006;2023-12-20T06:30:39;1.00;;;0.80;;
9465;SDS011;4771;48.726;9.006;2023-12-20T06:33:06;1.10;;;1.00;;
9465;SDS011;4771;48.726;9.006;2023-12-20T06:35:35;1.13;;;0.90;;
9465;SDS011;4771;48.726;9.006;2023-12-20T06:38:02;1.47;;;1.00;;
9465;SDS011;4771;48.726;9.006;2023-12-20T06:40:30;1.00;;;0.90;;
9465;SDS011;4771;48.726;9.006;2023-12-20T06:42:57;1.13;;;0.90;;
9465;SDS011;4771;48.726;9.006;2023-12-20T06:45:25;1.37;;;1.10;;
9465;SDS011;4771;48.726;9.006;2023-12-20T06:47:52;11.50;;;6.87;;
9465;SDS011;4771;48.726;9.006;2023-12-20T06:50:19;9.70;;;5.37;;
9465;SDS011;4771;48.726;9.006;2023-12-20T06:52:46;2.50;;;1.67;;
9465;SDS011;4771;48.726;9.006;2023-12-20T06:55:14;1.20;;;1.03;;
9465;SDS011;4771;48.726;9.006;2023-12-20T06:57:42;1.73;;;1.10;;
9465;SDS011;4771;48.726;9.006;2023-12-20T07:00:10;1.23;;;1.10;;
9465;SDS011;4771;48.726;9.006;2023-12-20T07:02:39;1.70;;;1.20;;
9465;SDS011;4771;48.726;9.006;2023-12-20T07:05:06;1.37;;;0.97;;
9465;SDS011;4771;48.726;9.006;2023-12-20T07:07:33;1.80;;;1.10;;
9465;SDS011;4771;48.726;9.006;2023-12-20T07:10:00;2.30;;;1.10;;
9465;SDS011;4771;48.726;9.006;2023-12-20T07:12:27;1.40;;;1.10;;
9465;SDS011;4771;48.726;9.006;2023-12-20T07:14:55;1.10;;;1.00;;
9465;SDS011;4771;48.726;9.006;2023-12-20T07:17:22;1.47;;;1.10;;
9465;SDS011;4771;48.726;9.006;2023-12-20T07:19:49;0.90;;;0.90;;
9465;SDS011;4771;48.726;9.006;2023-12-20T07:22:16;22.30;;;12.13;;
9465;SDS011;4771;48.726;9.006;2023-12-20T07:24:43;9.63;;;6.97;;
9465;SDS011;4771;48.726;9.006;2023-12-20T07:27:11;1.40;;;1.30;;
9465;SDS011;4771;48.726;9.006;2023-12-20T07:29:37;1.87;;;1.30;;
9465;SDS011;4771;48.726;9.006;2023-12-20T07:32:06;1.30;;;1.20;;
9465;SDS011;4771;48.726;9.006;2023-12-20T07:34:33;1.50;;;1.40;;
9465;SDS011;4771;48.726;9.006;2023-12-20T07:37:00;3.60;;;1.67;;
9465;SDS011;4771;48.726;9.006;2023-12-20T07:39:27;1.80;;;1.70;;
9465;SDS011;4771;48.726;9.006;2023-12-20T07:41:54;2.10;;;1.90;;
9465;SDS011;4771;48.726;9.006;2023-12-20T07:44:21;3.20;;;2.17;;
9465;SDS011;4771;48.726;9.006;2023-12-20T07:46:47;2.30;;;2.10;;
9465;SDS011;4771;48.726;9.006;2023-12-20T07:49:16;3.10;;;2.57;;
9465;SDS011;4771;48.726;9.006;2023-12-20T07:51:43;2.83;;;2.40;;
9465;SDS011;4771;48.726;9.006;2023-12-20T07:54:10;3.00;;;2.50;;
9465;SDS011;4771;48.726;9.006;2023-12-20T07:56:37;2.60;;;2.40;;
9465;SDS011;4771;48.726;9.006;2023-12-20T07:59:05;2.93;;;2.40;;
9465;SDS011;4771;48.726;9.006;2023-12-20T08:01:31;3.20;;;2.50;;
9465;SDS011;4771;48.726;9.006;2023-12-20T08:03:58;2.83;;;2.60;;
9465;SDS011;4771;48.726;9.006;2023-12-20T08:06:27;4.33;;;2.90;;
9465;SDS011;4771;48.726;9.006;2023-12-20T08:08:53;5.10;;;4.03;;
9465;SDS011;4771;48.726;9.006;2023-12-20T08:11:20;6.40;;;4.50;;
9465;SDS011;4771;48.726;9.006;2023-12-20T08:13:47;5.57;;;3.93;;
9465;SDS011;4771;48.726;9.006;2023-12-20T08:16:14;6.30;;;4.60;;
9465;SDS011;4771;48.726;9.006;2023-12-20T08:18:42;3.43;;;2.97;;
9465;SDS011;4771;48.726;9.006;2023-12-20T08:21:09;3.00;;;2.60;;
9465;SDS011;4771;48.726;9.006;2023-12-20T08:23:38;4.27;;;3.00;;
9465;SDS011;4771;48.726;9.006;2023-12-20T08:26:05;3.47;;;3.17;;
9465;SDS011;4771;48.726;9.006;2023-12-20T08:28:32;3.20;;;2.90;;
9465;SDS011;4771;48.726;9.006;2023-12-20T08:30:58;5.07;;;3.00;;
9465;SDS011;4771;48.726;9.006;2023-12-20T08:33:26;3.90;;;2.90;;
9465;SDS011;4771;48.726;9.006;2023-12-20T08:35:53;3.23;;;2.93;;
9465;SDS011;4771;48.726;9.006;2023-12-20T08:38:20;3.47;;;2.73;;
9465;SDS011;4771;48.726;9.006;2023-12-20T08:40:48;3.57;;;2.60;;
9465;SDS011;4771;48.726;9.006;2023-12-20T08:43:15;3.23;;;2.37;;
9465;SDS011;4771;48.726;9.006;2023-12-20T08:45:42;10.17;;;6.93;;
9465;SDS011;4771;48.726;9.006;2023-12-20T08:48:09;7.70;;;5.70;;
9465;SDS011;4771;48.726;9.006;2023-12-20T08:50:36;3.17;;;2.63;;
9465;SDS011;4771;48.726;9.006;2023-12-20T08:53:03;4.30;;;2.40;;
9465;SDS011;4771;48.726;9.006;2023-12-20T08:55:30;3.07;;;1.80;;
9465;SDS011;4771;48.726;9.006;2023-12-20T08:57:59;6.33;;;2.03;;
9465;SDS011;4771;48.726;9.006;2023-12-20T09:00:25;2.33;;;2.13;;
9465;SDS011;4771;48.726;9.006;2023-12-20T09:02:52;2.10;;;1.90;;
9465;SDS011;4771;48.726;9.006;2023-12-20T09:05:20;2.10;;;1.90;;
9465;SDS011;4771;48.726;9.006;2023-12-20T09:07:47;3.83;;;1.80;;
9465;SDS011;4771;48.726;9.006;2023-12-20T09:10:14;8.30;;;4.10;;
9465;SDS011;4771;48.726;9.006;2023-12-20T09:12:41;5.03;;;2.33;;
9465;SDS011;4771;48.726;9.006;2023-12-20T09:15:09;4.17;;;1.80;;
9465;SDS011;4771;48.726;9.006;2023-12-20T09:17:36;5.70;;;2.20;;
9465;SDS011;4771;48.726;9.006;2023-12-20T09:20:03;2.93;;;1.70;;
9465;SDS011;4771;48.726;9.006;2023-12-20T09:22:32;4.83;;;1.57;;
9465;SDS011;4771;48.726;9.006;2023-12-20T09:24:59;2.80;;;1.70;;
9465;SDS011;4771;48.726;9.006;2023-12-20T09:27:26;7.30;;;1.80;;
9465;SDS011;4771;48.726;9.006;2023-12-20T09:29:53;4.93;;;1.90;;
9465;SDS011;4771;48.726;9.006;2023-12-20T09:32:21;6.20;;;1.70;;
9465;SDS011;4771;48.726;9.006;2023-12-20T09:34:48;4.27;;;1.87;;
9465;SDS011;4771;48.726;9.006;2023-12-20T09:37:15;5.23;;;3.33;;
9465;SDS011;4771;48.726;9.006;2023-12-20T09:39:42;3.03;;;1.73;;
9465;SDS011;4771;48.726;9.006;2023-12-20T09:42:09;5.50;;;1.70;;
9465;SDS011;4771;48.726;9.006;2023-12-20T09:44:42;3.33;;;2.50;;
9465;SDS011;4771;48.726;9.006;2023-12-20T09:47:09;4.43;;;1.83;;
9465;SDS011;4771;48.726;9.006;2023-12-20T09:49:38;5.23;;;2.03;;
9465;SDS011;4771;48.726;9.006;2023-12-20T09:52:05;4.70;;;1.63;;
9465;SDS011;4771;48.726;9.006;2023-12-20T09:54:35;4.80;;;1.60;;
9465;SDS011;4771;48.726;9.006;2023-12-20T09:57:02;3.37;;;1.60;;
9465;SDS011;4771;48.726;9.006;2023-12-20T09:59:30;5.80;;;2.60;;
9465;SDS011;4771;48.726;9.006;2023-12-20T10:01:57;7.67;;;3.93;;
9465;SDS011;4771;48.726;9.006;2023-12-20T10:04:24;10.87;;;6.00;;
9465;SDS011;4771;48.726;9.006;2023-12-20T10:06:52;7.30;;;3.63;;
9465;SDS011;4771;48.726;9.006;2023-12-20T10:09:19;7.73;;;1.90;;
9465;SDS011;4771;48.726;9.006;2023-12-20T10:11:46;4.57;;;1.50;;
9465;SDS011;4771;48.726;9.006;2023-12-20T10:14:12;3.93;;;1.70;;
9465;SDS011;4771;48.726;9.006;2023-12-20T10:16:40;1.90;;;1.30;;
9465;SDS011;4771;48.726;9.006;2023-12-20T10:19:07;5.20;;;1.80;;
9465;SDS011;4771;48.726;9.006;2023-12-20T10:21:34;2.47;;;1.30;;
9465;SDS011;4771;48.726;9.006;2023-12-20T10:24:02;6.13;;;1.60;;
9465;SDS011;4771;48.726;9.006;2023-12-20T10:26:30;3.83;;;1.30;;
9465;SDS011;4771;48.726;9.006;2023-12-20T10:29:00;5.27;;;1.70;;
9465;SDS011;4771;48.726;9.006;2023-12-20T10:31:28;4.43;;;1.70;;
9465;SDS011;4771;48.726;9.006;2023-12-20T10:33:56;2.77;;;1.63;;
9465;SDS011;4771;48.726;9.006;2023-12-20T10:36:25;5.13;;;1.73;;
9465;SDS011;4771;48.726;9.006;2023-12-20T10:38:53;5.73;;;1.70;;
9465;SDS011;4771;48.726;9.006;2023-12-20T10:41:25;10.37;;;3.97;;
9465;SDS011;4771;48.726;9.006;2023-12-20T10:43:55;12.07;;;7.87;;
9465;SDS011;4771;48.726;9.006;2023-12-20T10:46:24;9.17;;;5.33;;
9465;SDS011;4771;48.726;9.006;2023-12-20T10:48:53;4.73;;;2.17;;
9465;SDS011;4771;48.726;9.006;2023-12-20T10:51:20;4.83;;;1.50;;
9465;SDS011;4771;48.726;9.006;2023-12-20T10:53:49;6.37;;;2.07;;
9465;SDS011;4771;48.726;9.006;2023-12-20T10:56:17;3.30;;;1.63;;
9465;SDS011;4771;48.726;9.006;2023-12-20T10:58:46;4.23;;;2.00;;
9465;SDS011;4771;48.726;9.006;2023-12-20T11:01:14;4.63;;;1.60;;
9465;SDS011;4771;48.726;9.006;2023-12-20T11:03:43;3.30;;;1.60;;
9465;SDS011;4771;48.726;9.006;2023-12-20T11:06:16;5.43;;;1.50;;
9465;SDS011;4771;48.726;9.006;2023-12-20T11:08:55;4.43;;;2.03;;
9465;SDS011;4771;48.726;9.006;2023-12-20T11:11:35;3.37;;;1.63;;
9465;SDS011;4771;48.726;9.006;2023-12-20T11:14:12;5.33;;;1.70;;
9465;SDS011;4771;48.726;9.006;2023-12-20T11:16:43;2.83;;;1.67;;
9465;SDS011;4771;48.726;9.006;2023-12-20T11:19:11;2.73;;;1.60;;
9465;SDS011;4771;48.726;9.006;2023-12-20T11:21:39;3.30;;;1.47;;
9465;SDS011;4771;48.726;9.006;2023-12-20T11:24:06;4.93;;;1.70;;
9465;SDS011;4771;48.726;9.006;2023-12-20T11:26:33;5.23;;;2.00;;
9465;SDS011;4771;48.726;9.006;2023-12-20T11:31:57;5.70;;;1.57;;
9465;SDS011;4771;48.726;9.006;2023-12-20T11:34:26;6.37;;;1.67;;
9465;SDS011;4771;48.726;9.006;2023-12-20T11:36:57;3.20;;;1.43;;
9465;SDS011;4771;48.726;9.006;2023-12-20T11:39:25;15.70;;;9.30;;
9465;SDS011;4771;48.726;9.006;2023-12-20T11:41:54;21.47;;;12.17;;
9465;SDS011;4771;48.726;9.006;2023-12-20T11:44:22;10.67;;;6.07;;
9465;SDS011;4771;48.726;9.006;2023-12-20T11:46:52;7.20;;;2.83;;
9465;SDS011;4771;48.726;9.006;2023-12-20T11:49:22;5.77;;;1.83;;
9465;SDS011;4771;48.726;9.006;2023-12-20T11:51:50;5.57;;;1.70;;
9465;SDS011;4771;48.726;9.006;2023-12-20T11:54:17;7.03;;;1.80;;
9465;SDS011;4771;48.726;9.006;2023-12-20T11:56:44;6.00;;;1.50;;
9465;SDS011;4771;48.726;9.006;2023-12-20T11:59:11;4.83;;;1.77;;
9465;SDS011;4771;48.726;9.006;2023-12-20T12:01:38;6.13;;;1.73;;
9465;SDS011;4771;48.726;9.006;2023-12-20T12:04:07;6.90;;;2.00;;
9465;SDS011;4771;48.726;9.006;2023-12-20T12:06:34;5.17;;;1.80;;
9465;SDS011;4771;48.726;9.006;2023-12-20T12:09:00;7.17;;;2.87;;
9465;SDS011;4771;48.726;9.006;2023-12-20T12:11:29;21.13;;;10.10;;
9465;SDS011;4771;48.726;9.006;2023-12-20T12:13:57;11.63;;;5.67;;
9465;SDS011;4771;48.726;9.006;2023-12-20T12:16:24;6.83;;;3.73;;
9465;SDS011;4771;48.726;9.006;2023-12-20T12:18:55;6.17;;;1.90;;
9465;SDS011;4771;48.726;9.006;2023-12-20T12:21:24;5.63;;;2.13;;
9465;SDS011;4771;48.726;9.006;2023-12-20T12:23:51;7.00;;;4.13;;
9465;SDS011;4771;48.726;9.006;2023-12-20T12:26:18;15.20;;;6.60;;
9465;SDS011;4771;48.726;9.006;2023-12-20T12:28:45;7.63;;;3.80;;
9465;SDS011;4771;48.726;9.006;2023-12-20T12:31:15;6.60;;;2.13;;
9465;SDS011;4771;48.726;9.006;2023-12-20T12:33:43;4.50;;;1.50;;
9465;SDS011;4771;48.726;9.006;2023-12-20T12:36:10;4.10;;;1.93;;
9465;SDS011;4771;48.726;9.006;2023-12-20T12:38:42;5.37;;;1.60;;
9465;SDS011;4771;48.726;9.006;2023-12-20T12:41:09;2.47;;;1.43;;
9465;SDS011;4771;48.726;9.006;2023-12-20T12:43:40;4.20;;;1.57;;
9465;SDS011;4771;48.726;9.006;2023-12-20T12:46:07;4.47;;;1.60;;
9465;SDS011;4771;48.726;9.006;2023-12-20T12:48:34;5.40;;;1.60;;
9465;SDS011;4771;48.726;9.006;2023-12-20T12:51:00;5.10;;;1.53;;
9465;SDS011;4771;48.726;9.006;2023-12-20T12:53:27;4.67;;;1.77;;
9465;SDS011;4771;48.726;9.006;2023-12-20T12:55:55;3.73;;;1.60;;
9465;SDS011;4771;48.726;9.006;2023-12-20T12:58:22;8.17;;;3.67;;
9465;SDS011;4771;48.726;9.006;2023-12-20T13:00:50;6.77;;;3.17;;
9465;SDS011;4771;48.726;9.006;2023-12-20T13:03:17;17.27;;;9.77;;
9465;SDS011;4771;48.726;9.006;2023-12-20T13:05:44;4.23;;;2.47;;
9465;SDS011;4771;48.726;9.006;2023-12-20T13:08:12;5.47;;;2.33;;
9465;SDS011;4771;48.726;9.006;2023-12-20T13:10:39;5.63;;;1.80;;
9465;SDS011;4771;48.726;9.006;2023-12-20T13:13:07;6.27;;;1.80;;
9465;SDS011;4771;48.726;9.006;2023-12-20T13:15:34;6.63;;;1.60;;
9465;SDS011;4771;48.726;9.006;2023-12-20T13:18:01;6.40;;;1.60;;
9465;SDS011;4771;48.726;9.006;2023-12-20T13:20:29;3.20;;;1.50;;
9465;SDS011;4771;48.726;9.006;2023-12-20T13:22:56;4.77;;;1.70;;
9465;SDS011;4771;48.726;9.006;2023-12-20T13:25:23;3.70;;;1.50;;
9465;SDS011;4771;48.726;9.006;2023-12-20T13:27:50;3.33;;;1.40;;
9465;SDS011;4771;48.726;9.006;2023-12-20T13:30:18;3.53;;;1.40;;
9465;SDS011;4771;48.726;9.006;2023-12-20T13:32:45;3.03;;;1.50;;
9465;SDS011;4771;48.726;9.006;2023-12-20T13:35:12;8.30;;;2.60;;
9465;SDS011;4771;48.726;9.006;2023-12-20T13:37:39;4.87;;;2.83;;
9465;SDS011;4771;48.726;9.006;2023-12-20T13:40:06;9.13;;;2.80;;
9465;SDS011;4771;48.726;9.006;2023-12-20T13:42:34;5.53;;;3.70;;
9465;SDS011;4771;48.726;9.006;2023-12-20T13:45:00;5.63;;;2.70;;
9465;SDS011;4771;48.726;9.006;2023-12-20T13:47:31;5.40;;;1.53;;
9465;SDS011;4771;48.726;9.006;2023-12-20T13:49:58;4.50;;;1.67;;
9465;SDS011;4771;48.726;9.006;2023-12-20T13:52:25;6.10;;;1.80;;
9465;SDS011;4771;48.726;9.006;2023-12-20T13:54:52;2.50;;;1.30;;
9465;SDS011;4771;48.726;9.006;2023-12-20T13:57:18;4.03;;;1.63;;
9465;SDS011;4771;48.726;9.006;2023-12-20T13:59:45;3.43;;;1.50;;
9465;SDS011;4771;48.726;9.006;2023-12-20T14:02:12;3.37;;;1.80;;
9465;SDS011;4771;48.726;9.006;2023-12-20T14:04:41;3.73;;;1.40;;
9465;SDS011;4771;48.726;9.006;2023-12-20T14:07:08;2.63;;;1.50;;
9465;SDS011;4771;48.726;9.006;2023-12-20T14:09:35;4.53;;;1.90;;
9465;SDS011;4771;48.726;9.006;2023-12-20T14:12:02;7.70;;;2.37;;
9465;SDS011;4771;48.726;9.006;2023-12-20T14:14:29;4.60;;;2.03;;
9465;SDS011;4771;48.726;9.006;2023-12-20T14:16:56;5.97;;;2.30;;
9465;SDS011;4771;48.726;9.006;2023-12-20T14:19:23;2.47;;;1.40;;
9465;SDS011;4771;48.726;9.006;2023-12-20T14:21:51;4.93;;;1.50;;
9465;SDS011;4771;48.726;9.006;2023-12-20T14:24:18;5.27;;;1.70;;
9465;SDS011;4771;48.726;9.006;2023-12-20T14:26:45;3.57;;;1.40;;
9465;SDS011;4771;48.726;9.006;2023-12-20T14:29:11;7.60;;;1.73;;
9465;SDS011;4771;48.726;9.006;2023-12-20T14:31:38;2.63;;;1.40;;
9465;SDS011;4771;48.726;9.006;2023-12-20T14:34:05;3.10;;;1.60;;
9465;SDS011;4771;48.726;9.006;2023-12-20T14:36:33;3.93;;;1.60;;
9465;SDS011;4771;48.726;9.006;2023-12-20T14:39:02;2.60;;;1.50;;
9465;SDS011;4771;48.726;9.006;2023-12-20T14:41:29;3.43;;;1.43;;
9465;SDS011;4771;48.726;9.006;2023-12-20T14:43:56;4.80;;;1.57;;
9465;SDS011;4771;48.726;9.006;2023-12-20T14:46:22;4.07;;;1.57;;
9465;SDS011;4771;48.726;9.006;2023-12-20T14:48:49;4.87;;;1.90;;
9465;SDS011;4771;48.726;9.006;2023-12-20T14:51:15;1.93;;;1.30;;
9465;SDS011;4771;48.726;9.006;2023-12-20T14:53:42;3.00;;;1.63;;
9465;SDS011;4771;48.726;9.006;2023-12-20T14:56:11;1.90;;;1.30;;
9465;SDS011;4771;48.726;9.006;2023-12-20T14:58:38;4.00;;;1.60;;
9465;SDS011;4771;48.726;9.006;2023-12-20T15:01:04;3.13;;;1.40;;
9465;SDS011;4771;48.726;9.006;2023-12-20T15:03:33;3.97;;;1.60;;
9465;SDS011;4771;48.726;9.006;2023-12-20T15:06:00;4.90;;;1.60;;
9465;SDS011;4771;48.726;9.006;2023-12-20T15:08:27;6.47;;;1.80;;
9465;SDS011;4771;48.726;9.006;2023-12-20T15:10:54;4.53;;;1.47;;
9465;SDS011;4771;48.726;9.006;2023-12-20T15:13:22;3.77;;;1.60;;
9465;SDS011;4771;48.726;9.006;2023-12-20T15:15:49;2.23;;;1.63;;
9465;SDS011;4771;48.726;9.006;2023-12-20T15:18:16;6.23;;;1.60;;